createdAt,value
2019-03-12T00:01:42.837Z,62.44
2019-03-12T00:06:44.905Z,62.53
2019-03-12T00:11:46.980Z,62.49
2019-03-12T00:16:49.056Z,62.56
2019-03-12T00:21:51.081Z,62.45
2019-03-12T00:26:53.141Z,62.07
2019-03-12T00:31:55.205Z,62.07
2019-03-12T00:36:57.361Z,62.06
2019-03-12T00:41:59.439Z,61.94
2019-03-12T00:47:01.469Z,61.84
2019-03-12T00:52:03.575Z,61.75
2019-03-12T00:57:05.654Z,61.78
2019-03-12T01:02:07.739Z,61.83
2019-03-12T01:07:09.825Z,62.08
2019-03-12T01:12:11.879Z,62.17
2019-03-12T01:17:13.981Z,61.89
2019-03-12T01:22:16.058Z,61.69
2019-03-12T01:27:18.139Z,61.73
2019-03-12T01:32:20.198Z,61.59
2019-03-12T01:37:22.224Z,61.34
2019-03-12T01:42:24.249Z,61.41
2019-03-12T01:47:26.321Z,61.29
2019-03-12T01:52:28.411Z,61.36
2019-03-12T01:57:30.483Z,61.73
2019-03-12T02:02:32.569Z,61.70
2019-03-12T02:07:34.695Z,61.43
2019-03-12T02:12:36.755Z,61.35
2019-03-12T02:17:39.994Z,61.39
2019-03-12T02:22:42.031Z,61.24
2019-03-12T02:27:44.216Z,61.10
2019-03-12T02:32:46.319Z,61.37
2019-03-12T02:37:50.183Z,61.44
2019-03-12T02:42:52.246Z,61.47
2019-03-12T02:47:54.235Z,61.41
2019-03-12T02:52:56.301Z,61.20
2019-03-12T02:57:58.354Z,61.03
2019-03-12T03:03:00.408Z,60.84
2019-03-12T03:08:05.665Z,60.74
2019-03-12T03:13:07.718Z,60.57
2019-03-12T03:18:09.756Z,60.54
2019-03-12T03:23:11.798Z,60.51
2019-03-12T03:28:13.868Z,60.47
2019-03-12T03:33:15.916Z,60.52
2019-03-12T03:38:17.970Z,60.47
2019-03-12T03:43:20.038Z,60.49
2019-03-12T03:48:22.068Z,60.46
2019-03-12T03:53:24.165Z,60.50
2019-03-12T03:58:26.254Z,60.65
2019-03-12T04:03:28.284Z,60.96
2019-03-12T04:08:30.516Z,61.01
2019-03-12T04:13:32.555Z,61.19
2019-03-12T04:18:34.597Z,61.42
2019-03-12T04:23:36.657Z,61.68
2019-03-12T04:28:38.701Z,61.80
2019-03-12T04:34:16.441Z,61.70
2019-03-12T04:39:18.530Z,61.72
2019-03-12T04:44:20.608Z,61.37
2019-03-12T04:49:22.704Z,61.72
2019-03-12T04:54:24.790Z,61.54
2019-03-12T04:59:26.844Z,61.75
2019-03-12T05:04:28.960Z,61.66
2019-03-12T05:09:31.047Z,61.84
2019-03-12T05:14:33.848Z,61.71
2019-03-12T05:19:37.969Z,61.83
2019-03-12T05:24:39.992Z,61.79
2019-03-12T05:29:42.034Z,61.75
2019-03-12T05:34:46.571Z,61.72
2019-03-12T05:39:48.628Z,61.42
2019-03-12T05:44:50.747Z,61.22
2019-03-12T05:49:52.905Z,61.23
2019-03-12T05:54:54.995Z,61.15
2019-03-12T05:59:57.305Z,61.14
2019-03-12T06:04:59.389Z,60.96
2019-03-12T06:10:01.474Z,61.08
2019-03-12T06:15:06.537Z,60.85
2019-03-12T06:20:08.666Z,60.83
2019-03-12T06:25:11.106Z,60.83
2019-03-12T06:30:13.258Z,60.81
2019-03-12T06:35:23.937Z,60.63
2019-03-12T06:40:31.288Z,60.47
2019-03-12T06:45:55.519Z,60.46
2019-03-12T06:51:26.009Z,60.45
2019-03-12T06:56:41.730Z,60.48
2019-03-12T07:02:02.125Z,60.51
2019-03-12T07:07:32.888Z,60.32
2019-03-12T07:12:53.161Z,60.47
2019-03-12T07:18:10.563Z,60.31
2019-03-12T07:23:32.260Z,60.27
2019-03-12T07:28:52.534Z,60.22
2019-03-12T07:34:17.995Z,60.19
2019-03-12T07:39:26.276Z,60.34
2019-03-12T07:44:48.037Z,60.06
2019-03-12T07:50:18.533Z,59.96
2019-03-12T07:55:47.059Z,59.56
2019-03-12T08:00:58.052Z,59.28
2019-03-12T08:06:08.249Z,59.03
2019-03-12T08:11:20.958Z,59.10
2019-03-12T08:16:54.864Z,58.42
2019-03-12T08:22:34.476Z,58.33
2019-03-12T08:27:56.148Z,57.63
2019-03-12T08:33:35.708Z,57.42
2019-03-12T08:39:00.199Z,56.80
2019-03-12T08:44:20.594Z,56.40
2019-03-12T08:49:44.812Z,55.96
2019-03-12T08:55:09.035Z,55.25
2019-03-12T09:00:27.334Z,53.77
2019-03-12T09:05:57.794Z,52.30
2019-03-12T09:11:19.500Z,50.53
2019-03-12T09:16:39.671Z,49.03
2019-03-12T09:21:48.834Z,48.56
2019-03-12T09:27:37.885Z,48.46
2019-03-12T09:33:02.526Z,46.89
2019-03-12T09:38:12.548Z,46.73
2019-03-12T09:43:34.250Z,46.11
2019-03-12T09:49:04.703Z,45.84
2019-03-12T09:54:21.798Z,45.01
2019-03-12T09:59:46.252Z,44.30
2019-03-12T10:05:03.057Z,44.52
2019-03-12T10:10:31.175Z,44.49
2019-03-12T10:15:47.748Z,44.36
2019-03-12T10:20:57.100Z,44.32
2019-03-12T10:26:17.459Z,43.62
2019-03-12T10:31:37.564Z,44.31
2019-03-12T10:37:10.992Z,43.55
2019-03-12T10:42:06.509Z,43.63
2019-03-12T10:47:12.842Z,43.19
2019-03-12T10:52:14.948Z,42.28
2019-03-12T10:57:17.008Z,42.63
2019-03-12T11:02:19.152Z,41.48
2019-03-12T11:07:21.187Z,40.58
2019-03-12T11:12:23.259Z,40.76
2019-03-12T11:17:25.488Z,40.80
2019-03-12T11:22:27.575Z,40.89
2019-03-12T11:27:29.650Z,40.98
2019-03-12T11:32:31.695Z,40.92
2019-03-12T11:37:34.875Z,40.94
2019-03-12T11:42:37.077Z,40.81
2019-03-12T11:47:39.857Z,41.40
2019-03-12T11:52:52.530Z,41.04
2019-03-12T11:57:46.478Z,41.26
2019-03-12T12:02:59.361Z,41.12
2019-03-12T12:07:52.549Z,41.13
2019-03-12T12:12:54.604Z,41.24
2019-03-12T12:17:56.678Z,39.34
2019-03-12T12:23:01.323Z,38.83
2019-03-12T12:28:03.427Z,39.73
2019-03-12T12:33:05.491Z,39.12
2019-03-12T12:38:07.574Z,39.32
2019-03-12T12:43:09.680Z,38.95
2019-03-12T12:48:11.761Z,38.72
2019-03-12T12:53:13.847Z,39.22
2019-03-12T12:58:15.898Z,39.45
2019-03-12T13:03:17.960Z,38.66
2019-03-12T13:08:20.017Z,38.38
2019-03-12T13:13:22.165Z,39.06
2019-03-12T13:18:24.239Z,39.24
2019-03-12T13:23:26.312Z,39.30
2019-03-12T13:28:28.381Z,38.25
2019-03-12T13:33:30.430Z,38.38
2019-03-12T13:38:45.014Z,37.79
2019-03-12T13:43:38.925Z,37.78
2019-03-12T13:48:40.975Z,37.87
2019-03-12T13:53:43.055Z,38.06
2019-03-12T13:58:45.117Z,38.46
2019-03-12T14:03:47.412Z,38.70
2019-03-12T14:08:51.867Z,38.71
2019-03-12T14:13:53.927Z,39.06
2019-03-12T14:18:55.976Z,39.75
2019-03-12T14:24:03.096Z,38.62
2019-03-12T14:29:06.149Z,38.57
2019-03-12T14:34:08.177Z,38.98
2019-03-12T14:39:10.225Z,38.60
2019-03-12T14:44:12.274Z,38.62
2019-03-12T14:49:14.276Z,38.54
2019-03-12T14:54:16.378Z,38.83
2019-03-12T14:59:18.484Z,38.76
2019-03-12T15:04:20.585Z,38.52
2019-03-12T15:09:22.690Z,38.41
2019-03-12T15:14:24.780Z,38.01
2019-03-12T15:19:26.923Z,38.00
2019-03-12T15:24:29.309Z,38.42
2019-03-12T15:29:31.478Z,38.76
2019-03-12T15:34:33.565Z,39.00
2019-03-12T15:39:35.666Z,39.47
2019-03-12T15:44:37.716Z,39.73
2019-03-12T15:49:43.000Z,39.96
2019-03-12T15:54:43.826Z,40.10
2019-03-12T15:59:45.889Z,40.18
2019-03-12T16:04:47.973Z,39.87
2019-03-12T16:09:50.018Z,39.71
2019-03-12T16:14:52.100Z,39.71
2019-03-12T16:19:54.199Z,39.84
2019-03-12T16:24:56.240Z,39.66
2019-03-12T16:29:58.317Z,39.80
2019-03-12T16:35:00.380Z,39.64
2019-03-12T16:40:02.431Z,39.53
2019-03-12T16:45:05.234Z,39.66
2019-03-12T16:50:07.784Z,39.73
2019-03-12T16:55:09.991Z,39.83
2019-03-12T17:00:12.294Z,40.11
2019-03-12T17:05:14.570Z,40.31
2019-03-12T17:10:16.723Z,40.70
2019-03-12T17:15:18.982Z,40.45
2019-03-12T17:20:21.035Z,40.54
2019-03-12T17:25:23.110Z,40.60
2019-03-12T17:30:25.175Z,40.73
2019-03-12T17:35:27.360Z,40.80
2019-03-12T17:40:29.465Z,41.02
2019-03-12T17:45:31.534Z,40.96
2019-03-12T17:50:33.687Z,40.89
2019-03-12T17:55:35.782Z,40.97
2019-03-12T18:00:39.792Z,41.02
2019-03-12T18:05:41.885Z,41.02
2019-03-12T18:10:43.977Z,41.03
2019-03-12T18:15:46.114Z,40.88
2019-03-12T18:20:48.199Z,40.74
2019-03-12T18:25:50.373Z,40.52
2019-03-12T18:30:52.472Z,40.25
2019-03-12T18:35:54.503Z,40.45
2019-03-12T18:40:56.725Z,40.37
2019-03-12T18:45:58.843Z,40.21
2019-03-12T18:51:00.876Z,40.35
2019-03-12T18:56:07.351Z,40.29
2019-03-12T19:01:11.208Z,40.67
2019-03-12T19:06:13.276Z,40.75
2019-03-12T19:11:19.069Z,40.86
2019-03-12T19:16:21.158Z,40.56
2019-03-12T19:21:23.322Z,40.74
2019-03-12T19:26:26.727Z,40.60
2019-03-12T19:32:03.884Z,40.59
2019-03-12T19:37:06.184Z,40.67
2019-03-12T19:42:11.800Z,40.63
2019-03-12T19:47:14.026Z,40.12
2019-03-12T19:52:16.107Z,39.83
2019-03-12T19:57:18.195Z,40.00
2019-03-12T20:02:20.609Z,39.77
2019-03-12T20:07:22.687Z,39.67
2019-03-12T20:13:15.803Z,39.34
2019-03-12T20:19:08.954Z,39.01
2019-03-12T20:24:47.729Z,38.36
2019-03-12T20:30:27.766Z,38.30
2019-03-12T20:36:16.517Z,38.18
2019-03-12T20:41:55.360Z,38.54
2019-03-12T20:47:35.019Z,38.47
2019-03-12T20:53:34.421Z,38.37
2019-03-12T20:59:29.141Z,38.46
2019-03-12T21:05:15.224Z,38.51
2019-03-12T21:11:05.354Z,38.75
2019-03-12T21:16:53.550Z,38.64
2019-03-12T21:22:34.906Z,38.48
2019-03-12T21:28:18.629Z,38.57
2019-03-12T21:33:20.750Z,38.23
2019-03-12T21:38:24.761Z,37.80
2019-03-12T21:43:26.870Z,36.88
2019-03-12T21:48:28.940Z,37.06
2019-03-12T21:53:31.028Z,36.62
2019-03-12T21:58:33.094Z,36.35
2019-03-12T22:03:35.237Z,36.16
2019-03-12T22:08:37.362Z,36.08
2019-03-12T22:13:39.540Z,35.69
2019-03-12T22:18:41.664Z,35.37
2019-03-12T22:23:46.500Z,35.77
2019-03-12T22:28:48.594Z,35.57
2019-03-12T22:33:50.944Z,35.68
2019-03-12T22:38:52.983Z,35.86
2019-03-12T22:43:55.250Z,35.95
2019-03-12T22:48:57.300Z,35.92
2019-03-12T22:53:59.395Z,35.78
2019-03-12T22:59:01.528Z,35.79
2019-03-12T23:04:03.827Z,35.69
2019-03-12T23:09:06.255Z,35.72
2019-03-12T23:14:08.361Z,36.06
2019-03-12T23:19:10.526Z,35.89
2019-03-12T23:24:12.611Z,36.09
2019-03-12T23:29:14.654Z,35.73
2019-03-12T23:34:16.678Z,35.84
2019-03-12T23:39:18.774Z,35.79
2019-03-12T23:44:20.867Z,36.10
2019-03-12T23:49:23.187Z,35.90
2019-03-12T23:54:25.349Z,35.78
2019-03-12T23:59:27.346Z,36.00
